Time,TemperatureF,DewpointF,PressureIn,WindDirection,WindDirectionDegrees,WindSpeedMPH,WindSpeedGustMPH,Humidity,HourlyPrecipIn,Conditions,Clouds,dailyrainin,SolarRadiationWatts/m^2,SoftwareType,DateUTC
2013-04-14 00:00:00,51.1,32.6,30.09,WNW,282,0.0,0.0,49,0.00,,---,0.00,0.00,VWS V14.01,2013-04-14 04:00:00,
2013-04-14 00:01:00,51.1,33.1,30.09,WNW,282,0.0,0.0,50,0.00,,---,0.00,0.00,VWS V14.01,2013-04-14 04:01:00,
2013-04-14 00:06:00,51.0,33.0,30.09,WNW,282,0.0,0.0,50,0.00,,---,0.00,0.00,VWS V14.01,2013-04-14 04:06:00,
2013-04-14 00:11:00,50.9,32.9,30.09,WNW,282,0.0,0.0,50,0.00,,---,0.00,0.00,VWS V14.01,2013-04-14 04:11:00,
2013-04-14 00:16:00,50.8,32.8,30.09,WNW,282,0.0,0.0,50,0.00,,---,0.00,0.00,VWS V14.01,2013-04-14 04:16:00,
2013-04-14 00:21:00,50.9,32.9,30.09,WNW,282,0.0,0.0,50,0.00,,---,0.00,0.00,VWS V14.01,2013-04-14 04:21:00,
2013-04-14 00:27:00,50.9,32.9,30.09,WNW,282,0.0,0.0,50,0.00,,---,0.00,0.00,VWS V14.01,2013-04-14 04:27:00,
2013-04-14 00:30:00,50.8,33.8,30.09,WNW,282,0.0,0.0,52,0.00,,---,0.00,0.00,VWS V14.01,2013-04-14 04:30:00,
2013-04-14 00:32:00,50.8,33.8,30.09,WNW,282,0.0,0.0,52,0.00,,---,0.00,0.00,VWS V14.01,2013-04-14 04:32:00,
2013-04-14 00:37:00,50.8,35.7,30.09,WNW,282,0.0,0.0,56,0.00,,---,0.00,0.00,VWS V14.01,2013-04-14 04:37:00,
2013-04-14 00:42:00,50.7,36.9,30.09,WNW,282,0.0,0.0,59,0.00,,---,0.00,0.00,VWS V14.01,2013-04-14 04:42:00,
2013-04-14 00:47:00,50.4,35.3,30.09,WNW,282,0.0,0.0,56,0.00,,---,0.00,0.00,VWS V14.01,2013-04-14 04:47:00,
2013-04-14 00:52:00,50.0,33.6,30.09,WNW,282,0.0,0.0,53,0.00,,---,0.00,0.00,VWS V14.01,2013-04-14 04:52:00,
2013-04-14 00:57:00,49.6,33.2,30.09,WNW,282,0.0,0.0,53,0.00,,---,0.00,0.00,VWS V14.01,2013-04-14 04:57:00,
2013-04-14 01:00:00,49.2,32.8,30.09,WNW,282,0.0,0.0,53,0.00,,---,0.00,0.00,VWS V14.01,2013-04-14 05:00:00,
2013-04-14 01:02:00,49.2,32.8,30.09,WNW,282,0.0,0.0,53,0.00,,---,0.00,0.00,VWS V14.01,2013-04-14 05:02:00,
2013-04-14 01:07:00,48.9,33.0,30.09,WNW,282,0.0,0.0,54,0.00,,---,0.00,0.00,VWS V14.01,2013-04-14 05:07:00,
2013-04-14 01:12:00,48.6,33.2,30.10,WNW,282,0.0,0.0,55,0.00,,---,0.00,0.00,VWS V14.01,2013-04-14 05:12:00,
2013-04-14 01:17:00,48.3,32.9,30.10,WNW,282,0.0,0.0,55,0.00,,---,0.00,0.00,VWS V14.01,2013-04-14 05:17:00,
2013-04-14 01:22:00,48.2,33.3,30.10,WNW,282,0.0,0.0,56,0.00,,---,0.00,0.00,VWS V14.01,2013-04-14 05:22:00,
2013-04-14 01:27:00,48.1,33.6,30.10,WNW,282,0.0,0.0,57,0.00,,---,0.00,0.00,VWS V14.01,2013-04-14 05:27:00,
2013-04-14 01:30:00,47.9,33.4,30.10,WNW,282,0.0,0.0,57,0.00,,---,0.00,0.00,VWS V14.01,2013-04-14 05:30:00,
2013-04-14 01:32:00,47.9,33.4,30.10,WNW,282,0.0,0.0,57,0.00,,---,0.00,0.00,VWS V14.01,2013-04-14 05:32:00,
2013-04-14 01:37:00,47.8,32.9,30.10,WNW,282,0.0,0.0,56,0.00,,---,0.00,0.00,VWS V14.01,2013-04-14 05:37:00,
2013-04-14 01:42:00,47.8,32.9,30.10,WNW,282,0.0,0.0,56,0.00,,---,0.00,0.00,VWS V14.01,2013-04-14 05:42:00,
2013-04-14 01:48:00,47.7,33.2,30.11,WNW,282,0.0,0.0,57,0.00,,---,0.00,0.00,VWS V14.01,2013-04-14 05:48:00,
2013-04-14 01:53:00,47.6,32.7,30.11,WNW,282,0.0,0.0,56,0.00,,---,0.00,0.00,VWS V14.01,2013-04-14 05:53:00,
2013-04-14 01:58:00,47.7,32.8,30.11,WNW,282,0.0,0.0,56,0.00,,---,0.00,0.00,VWS V14.01,2013-04-14 05:58:00,
2013-04-14 02:00:00,47.7,32.8,30.11,WNW,282,0.0,0.0,56,0.00,,---,0.00,0.00,VWS V14.01,2013-04-14 06:00:00,
2013-04-14 02:03:00,47.7,32.8,30.11,WNW,282,0.0,0.0,56,0.00,,---,0.00,0.00,VWS V14.01,2013-04-14 06:03:00,
2013-04-14 02:08:00,47.7,33.2,30.10,WNW,282,0.0,0.0,57,0.00,,---,0.00,0.00,VWS V14.01,2013-04-14 06:08:00,
2013-04-14 02:13:00,47.8,34.6,30.10,WNW,282,0.0,0.0,60,0.00,,---,0.00,0.00,VWS V14.01,2013-04-14 06:13:00,
2013-04-14 02:18:00,47.8,35.4,30.10,WNW,282,0.0,0.0,62,0.00,,---,0.00,0.00,VWS V14.01,2013-04-14 06:18:00,
2013-04-14 02:23:00,47.6,35.6,30.10,WNW,282,0.0,0.0,63,0.00,,---,0.00,0.00,VWS V14.01,2013-04-14 06:23:00,
2013-04-14 02:28:00,47.4,34.6,30.11,WNW,282,0.0,0.0,61,0.00,,---,0.00,0.00,VWS V14.01,2013-04-14 06:28:00,
2013-04-14 02:30:00,47.1,34.8,30.11,WNW,282,0.0,0.0,62,0.00,,---,0.00,0.00,VWS V14.01,2013-04-14 06:30:00,
2013-04-14 02:33:00,47.1,34.8,30.11,WNW,282,0.0,0.0,62,0.00,,---,0.00,0.00,VWS V14.01,2013-04-14 06:33:00,
2013-04-14 02:38:00,46.8,34.5,30.11,WNW,282,0.0,0.0,62,0.00,,---,0.00,0.00,VWS V14.01,2013-04-14 06:38:00,
2013-04-14 02:43:00,46.7,36.0,30.11,WNW,282,0.0,0.0,66,0.00,,---,0.00,0.00,VWS V14.01,2013-04-14 06:43:00,
2013-04-14 02:48:00,46.4,34.9,30.10,WNW,282,0.0,0.0,64,0.00,,---,0.00,0.00,VWS V14.01,2013-04-14 06:48:00,
2013-04-14 02:53:00,46.2,35.5,30.10,WNW,282,0.0,0.0,66,0.00,,---,0.00,0.00,VWS V14.01,2013-04-14 06:53:00,
2013-04-14 02:58:00,45.9,35.2,30.10,WNW,282,0.0,0.0,66,0.00,,---,0.00,0.00,VWS V14.01,2013-04-14 06:58:00,
2013-04-14 03:00:00,45.7,35.0,30.10,WNW,282,0.0,0.0,66,0.00,,---,0.00,0.00,VWS V14.01,2013-04-14 07:00:00,
2013-04-14 03:04:00,45.6,34.9,30.10,WNW,282,0.0,0.0,66,0.00,,---,0.00,0.00,VWS V14.01,2013-04-14 07:04:00,
2013-04-14 03:09:00,45.3,35.0,30.10,WNW,282,0.0,0.0,67,0.00,,---,0.00,0.00,VWS V14.01,2013-04-14 07:09:00,
2013-04-14 03:14:00,44.8,34.5,30.11,WNW,282,0.0,0.0,67,0.00,,---,0.00,0.00,VWS V14.01,2013-04-14 07:14:00,
2013-04-14 03:19:00,44.5,33.5,30.11,WNW,282,0.0,0.0,65,0.00,,---,0.00,0.00,VWS V14.01,2013-04-14 07:19:00,
2013-04-14 03:24:00,44.3,32.9,30.10,WNW,282,0.0,0.0,64,0.00,,---,0.00,0.00,VWS V14.01,2013-04-14 07:24:00,
2013-04-14 03:29:00,44.3,32.9,30.10,WNW,282,0.0,0.0,64,0.00,,---,0.00,0.00,VWS V14.01,2013-04-14 07:29:00,
2013-04-14 03:30:00,44.3,33.3,30.10,WNW,282,0.0,0.0,65,0.00,,---,0.00,0.00,VWS V14.01,2013-04-14 07:30:00,
2013-04-14 03:34:00,44.3,34.0,30.11,WNW,282,0.0,0.0,67,0.00,,---,0.00,0.00,VWS V14.01,2013-04-14 07:34:00,
2013-04-14 03:39:00,44.2,33.6,30.11,WNW,282,0.0,0.0,66,0.00,,---,0.00,0.00,VWS V14.01,2013-04-14 07:39:00,
2013-04-14 03:44:00,44.2,33.2,30.11,WNW,282,0.0,0.0,65,0.00,,---,0.00,0.00,VWS V14.01,2013-04-14 07:44:00,
2013-04-14 03:49:00,44.3,34.0,30.11,WNW,282,0.0,0.0,67,0.00,,---,0.00,0.00,VWS V14.01,2013-04-14 07:49:00,
2013-04-14 03:54:00,44.3,34.0,30.11,WNW,282,0.0,0.0,67,0.00,,---,0.00,0.00,VWS V14.01,2013-04-14 07:54:00,
2013-04-14 03:59:00,44.3,34.0,30.11,WNW,282,0.0,0.0,67,0.00,,---,0.00,0.00,VWS V14.01,2013-04-14 07:59:00,
2013-04-14 04:00:00,44.3,34.0,30.11,WNW,282,0.0,0.0,67,0.00,,---,0.00,0.00,VWS V14.01,2013-04-14 08:00:00,
2013-04-14 04:04:00,44.3,33.7,30.11,WNW,282,0.0,0.0,66,0.00,,---,0.00,0.00,VWS V14.01,2013-04-14 08:04:00,
2013-04-14 04:09:00,44.3,33.7,30.12,WNW,282,0.0,0.0,66,0.00,,---,0.00,0.00,VWS V14.01,2013-04-14 08:09:00,
2013-04-14 04:14:00,44.3,33.7,30.11,WNW,282,0.0,0.0,66,0.00,,---,0.00,0.00,VWS V14.01,2013-04-14 08:14:00,
2013-04-14 04:19:00,44.3,34.0,30.12,WNW,282,0.0,0.0,67,0.00,,---,0.00,0.00,VWS V14.01,2013-04-14 08:19:00,
2013-04-14 04:24:00,44.2,34.3,30.12,WNW,282,0.0,0.0,68,0.00,,---,0.00,0.00,VWS V14.01,2013-04-14 08:24:00,
2013-04-14 04:29:00,44.2,34.0,30.12,WNW,282,0.0,0.0,67,0.00,,---,0.00,0.00,VWS V14.01,2013-04-14 08:29:00,
2013-04-14 04:30:00,44.1,33.9,30.12,WNW,282,0.0,0.0,67,0.00,,---,0.00,0.00,VWS V14.01,2013-04-14 08:30:00,
2013-04-14 04:34:00,44.1,33.9,30.12,WNW,282,0.0,0.0,67,0.00,,---,0.00,0.00,VWS V14.01,2013-04-14 08:34:00,
2013-04-14 04:39:00,44.0,34.1,30.12,WNW,282,0.0,0.0,68,0.00,,---,0.00,0.00,VWS V14.01,2013-04-14 08:39:00,
2013-04-14 04:44:00,43.8,34.3,30.12,WNW,282,0.0,0.0,69,0.00,,---,0.00,0.00,VWS V14.01,2013-04-14 08:44:00,
2013-04-14 04:49:00,43.7,33.8,30.12,WNW,282,0.0,0.0,68,0.00,,---,0.00,0.00,VWS V14.01,2013-04-14 08:49:00,
2013-04-14 04:55:00,43.5,33.7,30.12,WNW,282,0.0,0.0,68,0.00,,---,0.00,0.00,VWS V14.01,2013-04-14 08:55:00,
2013-04-14 05:00:00,43.4,33.6,30.12,WNW,282,0.0,0.0,68,0.00,,---,0.00,0.00,VWS V14.01,2013-04-14 09:00:00,
2013-04-14 05:04:00,43.3,33.5,30.13,WNW,282,0.0,0.0,68,0.00,,---,0.00,0.00,VWS V14.01,2013-04-14 09:04:00,
2013-04-14 05:09:00,43.2,33.7,30.12,WNW,282,0.0,0.0,69,0.00,,---,0.00,0.00,VWS V14.01,2013-04-14 09:09:00,
2013-04-14 05:14:00,43.0,33.5,30.12,WNW,282,0.0,0.0,69,0.00,,---,0.00,0.00,VWS V14.01,2013-04-14 09:14:00,
2013-04-14 05:19:00,42.9,33.4,30.12,WNW,282,0.0,0.0,69,0.00,,---,0.00,0.00,VWS V14.01,2013-04-14 09:19:00,
2013-04-14 05:25:00,42.8,33.3,30.12,WNW,282,0.0,0.0,69,0.00,,---,0.00,0.00,VWS V14.01,2013-04-14 09:25:00,
2013-04-14 05:30:00,42.7,33.2,30.12,WNW,282,0.0,0.0,69,0.00,,---,0.00,0.00,VWS V14.01,2013-04-14 09:30:00,
2013-04-14 05:35:00,42.7,33.2,30.12,WNW,282,0.0,0.0,69,0.00,,---,0.00,0.00,VWS V14.01,2013-04-14 09:35:00,
2013-04-14 05:40:00,42.7,33.6,30.12,WNW,282,0.0,0.0,70,0.00,,---,0.00,0.00,VWS V14.01,2013-04-14 09:40:00,
2013-04-14 05:45:00,42.7,33.2,30.12,WNW,282,0.0,0.0,69,0.00,,---,0.00,0.00,VWS V14.01,2013-04-14 09:45:00,
2013-04-14 05:50:00,42.8,33.3,30.12,WNW,282,0.0,0.0,69,0.00,,---,0.00,0.00,VWS V14.01,2013-04-14 09:50:00,
2013-04-14 05:55:00,42.8,33.7,30.12,WNW,282,0.0,0.0,70,0.00,,---,0.00,0.00,VWS V14.01,2013-04-14 09:55:00,
2013-04-14 06:00:00,42.9,33.8,30.12,WNW,282,0.0,0.0,70,0.00,,---,0.00,0.00,VWS V14.01,2013-04-14 10:00:00,
2013-04-14 06:05:00,42.9,33.8,30.12,WNW,282,0.0,0.0,70,0.00,,---,0.00,0.00,VWS V14.01,2013-04-14 10:05:00,
2013-04-14 06:11:00,42.9,33.8,30.13,WNW,282,0.0,0.0,70,0.00,,---,0.00,0.00,VWS V14.01,2013-04-14 10:11:00,
2013-04-14 06:16:00,42.9,33.8,30.13,WNW,282,0.0,0.0,70,0.00,,---,0.00,0.00,VWS V14.01,2013-04-14 10:16:00,
2013-04-14 06:21:00,42.8,33.7,30.14,WNW,282,0.0,0.0,70,0.00,,---,0.00,0.00,VWS V14.01,2013-04-14 10:21:00,
2013-04-14 06:26:00,42.8,33.7,30.13,WNW,282,0.0,0.0,70,0.00,,---,0.00,0.00,VWS V14.01,2013-04-14 10:26:00,
2013-04-14 06:30:00,42.8,33.7,30.14,WNW,282,0.0,0.0,70,0.00,,---,0.00,0.00,VWS V14.01,2013-04-14 10:30:00,
2013-04-14 06:32:00,42.8,33.7,30.14,WNW,282,0.0,0.0,70,0.00,,---,0.00,0.00,VWS V14.01,2013-04-14 10:32:00,
2013-04-14 06:37:00,42.7,34.0,30.13,WNW,282,0.0,0.0,71,0.00,,---,0.00,0.00,VWS V14.01,2013-04-14 10:37:00,
2013-04-14 06:42:00,42.6,33.5,30.13,WNW,282,0.0,0.0,70,0.00,,---,0.00,0.00,VWS V14.01,2013-04-14 10:42:00,
2013-04-14 06:47:00,42.5,33.4,30.13,WNW,282,0.0,0.0,70,0.00,,---,0.00,0.00,VWS V14.01,2013-04-14 10:47:00,
2013-04-14 06:52:00,42.5,33.4,30.14,WNW,282,0.0,0.0,70,0.00,,---,0.00,0.00,VWS V14.01,2013-04-14 10:52:00,
2013-04-14 06:57:00,42.4,33.7,30.14,WNW,282,0.0,0.0,71,0.00,,---,0.00,5.00,VWS V14.01,2013-04-14 10:57:00,
2013-04-14 07:00:00,42.3,33.6,30.13,WNW,282,0.0,0.0,71,0.00,,---,0.00,7.00,VWS V14.01,2013-04-14 11:00:00,
2013-04-14 07:02:00,42.4,33.7,30.13,WNW,282,0.0,0.0,71,0.00,,---,0.00,7.00,VWS V14.01,2013-04-14 11:02:00,
2013-04-14 07:07:00,42.2,33.5,30.14,WNW,282,0.0,0.0,71,0.00,,---,0.00,11.00,VWS V14.01,2013-04-14 11:07:00,
2013-04-14 07:13:00,42.1,33.4,30.14,WNW,282,0.0,0.0,71,0.00,,---,0.00,12.00,VWS V14.01,2013-04-14 11:13:00,
2013-04-14 07:18:00,42.0,33.3,30.14,WNW,282,0.0,0.0,71,0.00,,---,0.00,14.00,VWS V14.01,2013-04-14 11:18:00,
2013-04-14 07:23:00,42.0,33.3,30.14,WNW,282,0.0,0.0,71,0.00,,---,0.00,16.00,VWS V14.01,2013-04-14 11:23:00,
2013-04-14 07:28:00,42.1,33.4,30.14,WNW,282,0.0,0.0,71,0.00,,---,0.00,19.00,VWS V14.01,2013-04-14 11:28:00,
2013-04-14 07:30:00,42.2,33.8,30.14,WNW,282,0.0,0.0,72,0.00,,---,0.00,19.00,VWS V14.01,2013-04-14 11:30:00,
2013-04-14 07:33:00,42.2,33.8,30.14,WNW,282,0.0,0.0,72,0.00,,---,0.00,21.00,VWS V14.01,2013-04-14 11:33:00,
2013-04-14 07:38:00,42.3,33.9,30.15,WNW,282,0.0,0.0,72,0.00,,---,0.00,23.00,VWS V14.01,2013-04-14 11:38:00,
2013-04-14 07:43:00,42.3,34.6,30.15,WNW,282,0.0,0.0,74,0.00,,---,0.00,23.00,VWS V14.01,2013-04-14 11:43:00,
2013-04-14 07:48:00,42.4,34.7,30.15,WNW,282,0.0,0.0,74,0.00,,---,0.00,25.00,VWS V14.01,2013-04-14 11:48:00,
2013-04-14 07:53:00,42.5,34.5,30.16,WNW,282,0.0,0.0,73,0.00,,---,0.00,26.00,VWS V14.01,2013-04-14 11:53:00,
2013-04-14 07:58:00,42.6,34.6,30.16,WNW,282,0.0,0.0,73,0.00,,---,0.00,40.00,VWS V14.01,2013-04-14 11:58:00,
2013-04-14 08:00:00,42.7,34.3,30.15,WNW,282,0.0,0.0,72,0.00,,---,0.00,56.00,VWS V14.01,2013-04-14 12:00:00,
2013-04-14 08:03:00,42.8,34.4,30.15,WNW,282,0.0,0.0,72,0.00,,---,0.00,51.00,VWS V14.01,2013-04-14 12:03:00,
2013-04-14 08:08:00,43.0,34.2,30.15,WNW,282,0.0,0.0,71,0.00,,---,0.00,33.00,VWS V14.01,2013-04-14 12:08:00,
2013-04-14 08:13:00,43.2,34.5,30.15,WNW,282,0.0,0.0,71,0.00,,---,0.00,49.00,VWS V14.01,2013-04-14 12:13:00,
2013-04-14 08:18:00,43.5,34.0,30.15,WNW,282,0.0,0.0,69,0.00,,---,0.00,39.00,VWS V14.01,2013-04-14 12:18:00,
2013-04-14 08:23:00,44.0,34.9,30.16,WNW,282,0.0,0.0,70,0.00,,---,0.00,70.00,VWS V14.01,2013-04-14 12:23:00,
2013-04-14 08:28:00,44.5,36.4,30.16,WNW,282,0.0,0.0,73,0.00,,---,0.00,46.00,VWS V14.01,2013-04-14 12:28:00,
2013-04-14 08:30:00,44.9,37.1,30.16,WNW,282,0.0,0.0,74,0.00,,---,0.00,47.00,VWS V14.01,2013-04-14 12:30:00,
2013-04-14 08:34:00,45.0,37.2,30.16,WNW,282,0.0,0.0,74,0.00,,---,0.00,49.00,VWS V14.01,2013-04-14 12:34:00,
2013-04-14 08:39:00,45.5,37.0,30.15,WNW,282,0.0,0.0,72,0.00,,---,0.00,118.00,VWS V14.01,2013-04-14 12:39:00,
2013-04-14 08:44:00,46.1,37.6,30.16,WNW,282,0.0,0.0,72,0.00,,---,0.00,192.00,VWS V14.01,2013-04-14 12:44:00,
2013-04-14 08:49:00,46.7,38.2,30.16,WNW,282,0.0,0.0,72,0.00,,---,0.00,207.00,VWS V14.01,2013-04-14 12:49:00,
2013-04-14 08:54:00,47.4,38.8,30.16,WNW,282,0.0,0.0,72,0.00,,---,0.00,221.00,VWS V14.01,2013-04-14 12:54:00,
2013-04-14 08:59:00,48.0,39.1,30.16,WNW,282,0.0,0.0,71,0.00,,---,0.00,378.00,VWS V14.01,2013-04-14 12:59:00,
2013-04-14 09:00:00,48.5,38.4,30.16,WNW,282,0.0,0.0,68,0.00,,---,0.00,396.00,VWS V14.01,2013-04-14 13:00:00,
2013-04-14 09:04:00,48.7,38.6,30.16,WNW,282,0.0,0.0,68,0.00,,---,0.00,403.00,VWS V14.01,2013-04-14 13:04:00,
2013-04-14 09:09:00,49.5,39.4,30.16,West,278,0.0,1.0,68,0.00,,---,0.00,420.00,VWS V14.01,2013-04-14 13:09:00,
2013-04-14 09:14:00,50.6,39.7,30.16,WNW,282,0.0,1.0,66,0.00,,---,0.00,439.00,VWS V14.01,2013-04-14 13:14:00,
2013-04-14 09:19:00,51.9,39.3,30.15,WNW,282,0.0,1.0,62,0.00,,---,0.00,454.00,VWS V14.01,2013-04-14 13:19:00,
2013-04-14 09:24:00,53.6,40.1,30.16,WNW,282,1.0,2.0,60,0.00,,---,0.00,473.00,VWS V14.01,2013-04-14 13:24:00,
2013-04-14 09:29:00,55.1,37.8,30.16,SSW,202,1.0,3.0,52,0.00,,---,0.00,492.00,VWS V14.01,2013-04-14 13:29:00,
2013-04-14 09:30:00,55.9,39.5,30.16,SSW,202,0.0,3.0,54,0.00,,---,0.00,501.00,VWS V14.01,2013-04-14 13:30:00,
2013-04-14 09:34:00,56.2,38.3,30.16,SW,227,0.0,3.0,51,0.00,,---,0.00,508.00,VWS V14.01,2013-04-14 13:34:00,
2013-04-14 09:39:00,57.0,37.5,30.16,WSW,237,1.0,4.0,48,0.00,,---,0.00,526.00,VWS V14.01,2013-04-14 13:39:00,
2013-04-14 09:44:00,57.9,38.3,30.16,WSW,237,0.0,4.0,48,0.00,,---,0.00,541.00,VWS V14.01,2013-04-14 13:44:00,
2013-04-14 09:50:00,59.0,38.8,30.17,WSW,237,0.0,4.0,47,0.00,,---,0.00,559.00,VWS V14.01,2013-04-14 13:50:00,
2013-04-14 09:55:00,59.9,39.6,30.16,WSW,237,0.0,4.0,47,0.00,,---,0.00,577.00,VWS V14.01,2013-04-14 13:55:00,
2013-04-14 10:00:00,60.9,39.4,30.16,South,178,0.0,4.0,45,0.00,,---,0.00,592.00,VWS V14.01,2013-04-14 14:00:00,
2013-04-14 10:05:00,61.6,41.2,30.16,SW,215,0.0,1.0,47,0.00,,---,0.00,608.00,VWS V14.01,2013-04-14 14:05:00,
2013-04-14 10:10:00,62.4,41.4,30.16,SSW,200,2.0,4.0,46,0.00,,---,0.00,626.00,VWS V14.01,2013-04-14 14:10:00,
2013-04-14 10:15:00,63.0,41.9,30.17,SSW,196,5.0,6.0,46,0.00,,---,0.00,645.00,VWS V14.01,2013-04-14 14:15:00,
2013-04-14 10:20:00,63.3,38.6,30.16,South,184,5.0,7.0,40,0.00,,---,0.00,656.00,VWS V14.01,2013-04-14 14:20:00,
2013-04-14 10:25:00,63.7,39.6,30.17,NNE,12,0.0,7.0,41,0.00,,---,0.00,668.00,VWS V14.01,2013-04-14 14:25:00,
2013-04-14 10:30:00,64.3,39.5,30.16,SW,236,0.0,7.0,40,0.00,,---,0.00,680.00,VWS V14.01,2013-04-14 14:30:00,
2013-04-14 10:35:00,65.3,39.7,30.16,SW,236,0.0,1.0,39,0.00,,---,0.00,705.00,VWS V14.01,2013-04-14 14:35:00,
2013-04-14 10:41:00,66.0,39.0,30.16,SW,234,2.0,5.0,37,0.00,,---,0.00,721.00,VWS V14.01,2013-04-14 14:41:00,
2013-04-14 10:46:00,66.2,39.2,30.16,South,188,4.0,5.0,37,0.00,,---,0.00,724.00,VWS V14.01,2013-04-14 14:46:00,
2013-04-14 10:51:00,66.5,40.8,30.16,South,172,0.0,5.0,39,0.00,,---,0.00,735.00,VWS V14.01,2013-04-14 14:51:00,
2013-04-14 10:56:00,66.8,41.1,30.15,NE,44,2.0,5.0,39,0.00,,---,0.00,758.00,VWS V14.01,2013-04-14 14:56:00,
2013-04-14 11:00:00,66.8,39.7,30.15,WSW,246,0.0,6.0,37,0.00,,---,0.00,768.00,VWS V14.01,2013-04-14 15:00:00,
2013-04-14 11:01:00,66.8,39.7,30.15,SW,231,4.0,6.0,37,0.00,,---,0.00,772.00,VWS V14.01,2013-04-14 15:01:00,
2013-04-14 11:06:00,67.1,40.0,30.15,South,181,1.0,6.0,37,0.00,,---,0.00,772.00,VWS V14.01,2013-04-14 15:06:00,
2013-04-14 11:11:00,67.3,40.8,30.15,SSE,163,0.0,6.0,38,0.00,,---,0.00,789.00,VWS V14.01,2013-04-14 15:11:00,
2013-04-14 11:17:00,67.5,38.9,30.15,SSW,203,3.0,6.0,35,0.00,,---,0.00,805.00,VWS V14.01,2013-04-14 15:17:00,
2013-04-14 11:21:00,67.5,40.3,30.15,SSW,202,3.0,10.0,37,0.00,,---,0.00,812.00,VWS V14.01,2013-04-14 15:21:00,
2013-04-14 11:27:00,68.1,40.9,30.15,SE,146,3.0,10.0,37,0.00,,---,0.00,830.00,VWS V14.01,2013-04-14 15:27:00,
2013-04-14 11:30:00,67.9,40.0,30.15,ENE,69,0.0,10.0,36,0.00,,---,0.00,844.00,VWS V14.01,2013-04-14 15:30:00,
2013-04-14 11:32:00,67.9,39.3,30.15,ENE,69,0.0,10.0,35,0.00,,---,0.00,844.00,VWS V14.01,2013-04-14 15:32:00,
2013-04-14 11:37:00,67.9,38.5,30.15,SW,215,4.0,6.0,34,0.00,,---,0.00,856.00,VWS V14.01,2013-04-14 15:37:00,
2013-04-14 11:42:00,68.1,39.4,30.15,SW,216,0.0,14.0,35,0.00,,---,0.00,844.00,VWS V14.01,2013-04-14 15:42:00,
2013-04-14 11:47:00,68.1,38.7,30.14,SE,133,9.0,14.0,34,0.00,,---,0.00,877.00,VWS V14.01,2013-04-14 15:47:00,
2013-04-14 11:52:00,68.6,38.4,30.14,WSW,256,0.0,14.0,33,0.00,,---,0.00,795.00,VWS V14.01,2013-04-14 15:52:00,
2013-04-14 11:57:00,68.6,38.4,30.14,South,181,2.0,14.0,33,0.00,,---,0.00,846.00,VWS V14.01,2013-04-14 15:57:00,
2013-04-14 12:00:00,68.7,37.7,30.14,SSW,211,0.0,14.0,32,0.00,,---,0.00,863.00,VWS V14.01,2013-04-14 16:00:00,
2013-04-14 12:02:00,68.7,37.7,30.14,SSW,211,0.0,14.0,32,0.00,,---,0.00,863.00,VWS V14.01,2013-04-14 16:02:00,
2013-04-14 12:07:00,68.7,38.5,30.14,South,172,3.0,9.0,33,0.00,,---,0.00,889.00,VWS V14.01,2013-04-14 16:07:00,
2013-04-14 12:13:00,69.0,39.5,30.13,NE,55,2.0,12.0,34,0.00,,---,0.00,856.00,VWS V14.01,2013-04-14 16:13:00,
2013-04-14 12:18:00,69.1,38.8,30.14,SSW,192,7.0,12.0,33,0.00,,---,0.00,796.00,VWS V14.01,2013-04-14 16:18:00,
2013-04-14 12:23:00,69.1,38.0,30.14,South,190,5.0,12.0,32,0.00,,---,0.00,835.00,VWS V14.01,2013-04-14 16:23:00,
2013-04-14 12:28:00,69.4,38.3,30.14,WSW,254,4.0,12.0,32,0.00,,---,0.00,828.00,VWS V14.01,2013-04-14 16:28:00,
2013-04-14 12:30:00,69.6,38.5,30.14,South,177,2.0,12.0,32,0.00,,---,0.00,793.00,VWS V14.01,2013-04-14 16:30:00,
2013-04-14 12:33:00,69.6,39.2,30.14,SSE,153,5.0,7.0,33,0.00,,---,0.00,793.00,VWS V14.01,2013-04-14 16:33:00,
2013-04-14 12:38:00,69.5,39.2,30.14,South,186,6.0,12.0,33,0.00,,---,0.00,789.00,VWS V14.01,2013-04-14 16:38:00,
2013-04-14 12:43:00,69.1,38.0,30.14,SSW,202,0.0,12.0,32,0.00,,---,0.00,861.00,VWS V14.01,2013-04-14 16:43:00,
2013-04-14 12:48:00,69.4,39.8,30.14,SSW,198,0.0,12.0,34,0.00,,---,0.00,844.00,VWS V14.01,2013-04-14 16:48:00,
2013-04-14 12:53:00,69.4,39.8,30.14,East,95,0.0,12.0,34,0.00,,---,0.00,856.00,VWS V14.01,2013-04-14 16:53:00,
2013-04-14 12:58:00,69.7,39.3,30.14,NE,54,4.0,12.0,33,0.00,,---,0.00,905.00,VWS V14.01,2013-04-14 16:58:00,
2013-04-14 13:00:00,70.3,39.9,30.14,ENE,78,0.0,12.0,33,0.00,,---,0.00,889.00,VWS V14.01,2013-04-14 17:00:00,
2013-04-14 13:03:00,70.4,40.0,30.14,West,281,2.0,2.0,33,0.00,,---,0.00,881.00,VWS V14.01,2013-04-14 17:03:00,
2013-04-14 13:08:00,70.8,40.3,30.14,SW,234,7.0,11.0,33,0.00,,---,0.00,891.00,VWS V14.01,2013-04-14 17:08:00,
2013-04-14 13:13:00,70.8,39.5,30.14,SSE,153,0.0,13.0,32,0.00,,---,0.00,853.00,VWS V14.01,2013-04-14 17:13:00,
2013-04-14 13:18:00,70.6,40.1,30.13,SE,132,4.0,13.0,33,0.00,,---,0.00,865.00,VWS V14.01,2013-04-14 17:18:00,
2013-04-14 13:23:00,70.9,39.6,30.13,South,171,13.0,13.0,32,0.00,,---,0.00,902.00,VWS V14.01,2013-04-14 17:23:00,
2013-04-14 13:28:00,70.7,39.4,30.13,WSW,250,1.0,13.0,32,0.00,,---,0.00,821.00,VWS V14.01,2013-04-14 17:28:00,
2013-04-14 13:30:00,71.0,39.7,30.13,SSE,153,0.0,13.0,32,0.00,,---,0.00,779.00,VWS V14.01,2013-04-14 17:30:00,
2013-04-14 13:33:00,71.0,39.7,30.13,SSE,162,3.0,8.0,32,0.00,,---,0.00,779.00,VWS V14.01,2013-04-14 17:33:00,
2013-04-14 13:39:00,71.0,39.7,30.13,SW,217,0.0,8.0,32,0.00,,---,0.00,570.00,VWS V14.01,2013-04-14 17:39:00,
2013-04-14 13:44:00,70.7,40.2,30.12,SW,222,3.0,11.0,33,0.00,,---,0.00,902.00,VWS V14.01,2013-04-14 17:44:00,
2013-04-14 13:49:00,70.6,39.3,30.12,NW,307,0.0,11.0,32,0.00,,---,0.00,916.00,VWS V14.01,2013-04-14 17:49:00,
2013-04-14 13:54:00,70.6,39.3,30.12,SE,134,4.0,12.0,32,0.00,,---,0.00,854.00,VWS V14.01,2013-04-14 17:54:00,
2013-04-14 13:59:00,70.6,40.1,30.12,SSE,155,1.0,12.0,33,0.00,,---,0.00,814.00,VWS V14.01,2013-04-14 17:59:00,
2013-04-14 14:00:00,70.9,40.4,30.12,SSE,167,2.0,12.0,33,0.00,,---,0.00,865.00,VWS V14.01,2013-04-14 18:00:00,
2013-04-14 14:04:00,71.0,39.7,30.12,NE,49,4.0,4.0,32,0.00,,---,0.00,803.00,VWS V14.01,2013-04-14 18:04:00,
2013-04-14 14:09:00,71.0,40.5,30.11,SSW,192,0.0,11.0,33,0.00,,---,0.00,788.00,VWS V14.01,2013-04-14 18:09:00,
2013-04-14 14:14:00,71.2,40.7,30.11,SSW,203,1.0,11.0,33,0.00,,---,0.00,693.00,VWS V14.01,2013-04-14 18:14:00,
2013-04-14 14:19:00,71.4,40.8,30.11,SSE,168,5.0,11.0,33,0.00,,---,0.00,738.00,VWS V14.01,2013-04-14 18:19:00,
2013-04-14 14:24:00,71.2,41.4,30.11,ENE,63,6.0,11.0,34,0.00,,---,0.00,737.00,VWS V14.01,2013-04-14 18:24:00,
2013-04-14 14:29:00,70.8,41.1,30.10,East,90,0.0,11.0,34,0.00,,---,0.00,751.00,VWS V14.01,2013-04-14 18:29:00,
2013-04-14 14:30:00,70.9,41.9,30.10,SSE,148,0.0,11.0,35,0.00,,---,0.00,708.00,VWS V14.01,2013-04-14 18:30:00,
2013-04-14 14:34:00,71.1,42.8,30.10,SSW,206,0.0,3.0,36,0.00,,---,0.00,657.00,VWS V14.01,2013-04-14 18:34:00,
2013-04-14 14:39:00,71.7,41.1,30.10,South,176,0.0,9.0,33,0.00,,---,0.00,606.00,VWS V14.01,2013-04-14 18:39:00,
2013-04-14 14:44:00,71.5,40.9,30.10,SSE,166,0.0,11.0,33,0.00,,---,0.00,566.00,VWS V14.01,2013-04-14 18:44:00,
2013-04-14 14:49:00,71.3,40.7,30.10,SSW,207,4.0,12.0,33,0.00,,---,0.00,568.00,VWS V14.01,2013-04-14 18:49:00,
2013-04-14 14:54:00,71.0,41.2,30.10,SSE,157,6.0,12.0,34,0.00,,---,0.00,624.00,VWS V14.01,2013-04-14 18:54:00,
2013-04-14 15:00:00,70.8,41.1,30.10,SSW,203,0.0,12.0,34,0.00,,---,0.00,610.00,VWS V14.01,2013-04-14 19:00:00,
2013-04-14 15:05:00,70.9,41.9,30.09,ENE,73,0.0,7.0,35,0.00,,---,0.00,613.00,VWS V14.01,2013-04-14 19:05:00,
2013-04-14 15:10:00,71.3,43.7,30.09,South,169,0.0,7.0,37,0.00,,---,0.00,640.00,VWS V14.01,2013-04-14 19:10:00,
2013-04-14 15:15:00,71.7,41.9,30.09,NNW,348,0.0,7.0,34,0.00,,---,0.00,622.00,VWS V14.01,2013-04-14 19:15:00,
2013-04-14 15:20:00,71.5,43.2,30.08,NE,43,4.0,11.0,36,0.00,,---,0.00,649.00,VWS V14.01,2013-04-14 19:20:00,
2013-04-14 15:25:00,71.6,42.5,30.08,SSE,165,10.0,11.0,35,0.00,,---,0.00,629.00,VWS V14.01,2013-04-14 19:25:00,
2013-04-14 15:30:00,71.5,41.7,30.08,South,182,2.0,11.0,34,0.00,,---,0.00,645.00,VWS V14.01,2013-04-14 19:30:00,
2013-04-14 15:35:00,71.3,41.5,30.08,East,88,4.0,10.0,34,0.00,,---,0.00,645.00,VWS V14.01,2013-04-14 19:35:00,
2013-04-14 15:40:00,71.1,42.1,30.07,SSW,202,0.0,10.0,35,0.00,,---,0.00,640.00,VWS V14.01,2013-04-14 19:40:00,
2013-04-14 15:45:00,71.5,42.4,30.08,ESE,115,3.0,12.0,35,0.00,,---,0.00,548.00,VWS V14.01,2013-04-14 19:45:00,
2013-04-14 15:50:00,71.5,42.4,30.08,South,186,1.0,12.0,35,0.00,,---,0.00,568.00,VWS V14.01,2013-04-14 19:50:00,
2013-04-14 15:55:00,71.6,43.3,30.08,SSE,155,5.0,12.0,36,0.00,,---,0.00,476.00,VWS V14.01,2013-04-14 19:55:00,
2013-04-14 16:00:00,71.5,43.2,30.08,SSW,196,2.0,12.0,36,0.00,,---,0.00,417.00,VWS V14.01,2013-04-14 20:00:00,
2013-04-14 16:05:00,71.3,43.0,30.08,SE,127,2.0,9.0,36,0.00,,---,0.00,388.00,VWS V14.01,2013-04-14 20:05:00,
2013-04-14 16:11:00,70.9,41.9,30.08,SSE,150,1.0,9.0,35,0.00,,---,0.00,373.00,VWS V14.01,2013-04-14 20:11:00,
2013-04-14 16:16:00,70.5,41.6,30.08,SSE,163,1.0,11.0,35,0.00,,---,0.00,345.00,VWS V14.01,2013-04-14 20:16:00,
2013-04-14 16:21:00,70.4,42.9,30.08,SSW,192,0.0,11.0,37,0.00,,---,0.00,322.00,VWS V14.01,2013-04-14 20:21:00,
2013-04-14 16:26:00,70.5,43.0,30.08,WSW,257,1.0,11.0,37,0.00,,---,0.00,272.00,VWS V14.01,2013-04-14 20:26:00,
2013-04-14 16:30:00,70.2,42.7,30.07,East,101,0.0,11.0,37,0.00,,---,0.00,272.00,VWS V14.01,2013-04-14 20:30:00,
2013-04-14 16:32:00,70.3,41.4,30.07,ENE,69,0.0,11.0,35,0.00,,---,0.00,274.00,VWS V14.01,2013-04-14 20:32:00,
2013-04-14 16:37:00,69.9,41.8,30.08,NNE,17,0.0,7.0,36,0.00,,---,0.00,274.00,VWS V14.01,2013-04-14 20:37:00,
2013-04-14 16:42:00,69.6,41.5,30.08,SSW,212,4.0,7.0,36,0.00,,---,0.00,278.00,VWS V14.01,2013-04-14 20:42:00,
2013-04-14 16:47:00,69.4,41.3,30.08,SE,144,0.0,7.0,36,0.00,,---,0.00,278.00,VWS V14.01,2013-04-14 20:47:00,
2013-04-14 16:52:00,69.2,41.1,30.07,SSE,167,4.0,9.0,36,0.00,,---,0.00,281.00,VWS V14.01,2013-04-14 20:52:00,
2013-04-14 16:57:00,69.2,41.8,30.08,SSE,155,0.0,9.0,37,0.00,,---,0.00,250.00,VWS V14.01,2013-04-14 20:57:00,
2013-04-14 17:00:00,69.1,41.8,30.08,South,184,3.0,10.0,37,0.00,,---,0.00,223.00,VWS V14.01,2013-04-14 21:00:00,
2013-04-14 17:02:00,69.1,41.8,30.08,South,184,0.0,10.0,37,0.00,,---,0.00,223.00,VWS V14.01,2013-04-14 21:02:00,
2013-04-14 17:07:00,69.0,42.4,30.08,ESE,121,2.0,6.0,38,0.00,,---,0.00,211.00,VWS V14.01,2013-04-14 21:07:00,
2013-04-14 17:12:00,68.7,41.4,30.08,ESE,117,2.0,10.0,37,0.00,,---,0.00,202.00,VWS V14.01,2013-04-14 21:12:00,
2013-04-14 17:18:00,68.5,41.9,30.08,SW,216,1.0,10.0,38,0.00,,---,0.00,192.00,VWS V14.01,2013-04-14 21:18:00,
2013-04-14 17:23:00,68.4,41.1,30.08,East,84,1.0,10.0,37,0.00,,---,0.00,192.00,VWS V14.01,2013-04-14 21:23:00,
2013-04-14 17:28:00,68.1,41.6,30.08,South,169,0.0,12.0,38,0.00,,---,0.00,188.00,VWS V14.01,2013-04-14 21:28:00,
2013-04-14 17:30:00,68.1,42.2,30.08,South,173,0.0,12.0,39,0.00,,---,0.00,176.00,VWS V14.01,2013-04-14 21:30:00,
2013-04-14 17:33:00,68.1,42.9,30.08,South,173,5.0,5.0,40,0.00,,---,0.00,176.00,VWS V14.01,2013-04-14 21:33:00,
2013-04-14 17:38:00,68.1,41.6,30.08,South,188,3.0,7.0,38,0.00,,---,0.00,165.00,VWS V14.01,2013-04-14 21:38:00,
2013-04-14 17:43:00,68.0,42.1,30.08,South,175,7.0,7.0,39,0.00,,---,0.00,156.00,VWS V14.01,2013-04-14 21:43:00,
2013-04-14 17:48:00,67.9,42.1,30.08,South,184,0.0,7.0,39,0.00,,---,0.00,153.00,VWS V14.01,2013-04-14 21:48:00,
2013-04-14 17:53:00,67.9,41.4,30.08,South,184,0.0,7.0,38,0.00,,---,0.00,142.00,VWS V14.01,2013-04-14 21:53:00,
2013-04-14 17:58:00,67.9,40.7,30.08,SE,144,0.0,7.0,37,0.00,,---,0.00,127.00,VWS V14.01,2013-04-14 21:58:00,
2013-04-14 18:00:00,67.8,40.6,30.09,South,187,0.0,7.0,37,0.00,,---,0.00,116.00,VWS V14.01,2013-04-14 22:00:00,
2013-04-14 18:03:00,67.8,40.6,30.09,SW,231,0.0,3.0,37,0.00,,---,0.00,113.00,VWS V14.01,2013-04-14 22:03:00,
2013-04-14 18:08:00,67.6,40.4,30.09,SE,145,0.0,7.0,37,0.00,,---,0.00,104.00,VWS V14.01,2013-04-14 22:08:00,
2013-04-14 18:14:00,67.4,40.2,30.09,SSE,156,0.0,10.0,37,0.00,,---,0.00,93.00,VWS V14.01,2013-04-14 22:14:00,
2013-04-14 18:19:00,67.3,40.8,30.08,SSE,148,0.0,10.0,38,0.00,,---,0.00,83.00,VWS V14.01,2013-04-14 22:19:00,
2013-04-14 18:24:00,67.0,41.2,30.08,South,173,3.0,12.0,39,0.00,,---,0.00,74.00,VWS V14.01,2013-04-14 22:24:00,
2013-04-14 18:29:00,66.8,41.7,30.08,SE,128,0.0,12.0,40,0.00,,---,0.00,67.00,VWS V14.01,2013-04-14 22:29:00,
2013-04-14 18:30:00,66.7,41.0,30.08,SSE,161,0.0,12.0,39,0.00,,---,0.00,63.00,VWS V14.01,2013-04-14 22:30:00,
2013-04-14 18:34:00,66.6,41.5,30.08,NE,45,1.0,4.0,40,0.00,,---,0.00,62.00,VWS V14.01,2013-04-14 22:34:00,
2013-04-14 18:39:00,66.3,41.3,30.08,SSW,207,0.0,11.0,40,0.00,,---,0.00,51.00,VWS V14.01,2013-04-14 22:39:00,
2013-04-14 18:44:00,66.1,41.1,30.08,SE,143,0.0,11.0,40,0.00,,---,0.00,46.00,VWS V14.01,2013-04-14 22:44:00,
2013-04-14 18:49:00,65.9,42.2,30.08,SW,232,5.0,11.0,42,0.00,,---,0.00,44.00,VWS V14.01,2013-04-14 22:49:00,
2013-04-14 18:54:00,65.7,42.0,30.08,South,178,4.0,11.0,42,0.00,,---,0.00,37.00,VWS V14.01,2013-04-14 22:54:00,
2013-04-14 18:59:00,65.5,41.8,30.08,ESE,109,1.0,11.0,42,0.00,,---,0.00,32.00,VWS V14.01,2013-04-14 22:59:00,
2013-04-14 19:00:00,65.4,41.7,30.08,South,171,0.0,11.0,42,0.00,,---,0.00,28.00,VWS V14.01,2013-04-14 23:00:00,
2013-04-14 19:04:00,65.3,41.6,30.08,SE,146,1.0,5.0,42,0.00,,---,0.00,26.00,VWS V14.01,2013-04-14 23:04:00,
2013-04-14 19:09:00,65.1,41.5,30.08,SSE,151,3.0,11.0,42,0.00,,---,0.00,21.00,VWS V14.01,2013-04-14 23:09:00,
2013-04-14 19:14:00,65.0,42.0,30.07,NNE,21,0.0,11.0,43,0.00,,---,0.00,18.00,VWS V14.01,2013-04-14 23:14:00,
2013-04-14 19:20:00,64.8,41.2,30.07,South,190,0.0,11.0,42,0.00,,---,0.00,14.00,VWS V14.01,2013-04-14 23:20:00,
2013-04-14 19:25:00,64.7,41.7,30.07,South,175,5.0,11.0,43,0.00,,---,0.00,11.00,VWS V14.01,2013-04-14 23:25:00,
2013-04-14 19:30:00,64.5,42.1,30.07,SSW,192,0.0,11.0,44,0.00,,---,0.00,11.00,VWS V14.01,2013-04-14 23:30:00,
2013-04-14 19:35:00,64.3,41.9,30.06,SE,142,0.0,3.0,44,0.00,,---,0.00,5.00,VWS V14.01,2013-04-14 23:35:00,
2013-04-14 19:40:00,64.1,41.8,30.06,SE,126,0.0,9.0,44,0.00,,---,0.00,5.00,VWS V14.01,2013-04-14 23:40:00,
2013-04-14 19:45:00,64.0,41.7,30.05,SE,138,0.0,12.0,44,0.00,,---,0.00,0.00,VWS V14.01,2013-04-14 23:45:00,
2013-04-14 19:50:00,63.8,42.1,30.05,SSE,159,0.0,12.0,45,0.00,,---,0.00,0.00,VWS V14.01,2013-04-14 23:50:00,
2013-04-14 19:55:00,63.6,41.9,30.05,South,176,4.0,12.0,45,0.00,,---,0.00,0.00,VWS V14.01,2013-04-14 23:55:00,
2013-04-14 20:00:00,63.5,41.8,30.05,South,171,1.0,12.0,45,0.00,,---,0.00,0.00,VWS V14.01,2013-04-15 00:00:00,
2013-04-14 20:05:00,63.4,41.7,30.05,SW,220,3.0,9.0,45,0.00,,---,0.00,0.00,VWS V14.01,2013-04-15 00:05:00,
2013-04-14 20:10:00,63.2,42.1,30.05,SSE,168,9.0,9.0,46,0.00,,---,0.00,0.00,VWS V14.01,2013-04-15 00:10:00,
2013-04-14 20:15:00,63.1,42.0,30.05,SSE,164,3.0,9.0,46,0.00,,---,0.00,0.00,VWS V14.01,2013-04-15 00:15:00,
2013-04-14 20:21:00,63.0,42.5,30.05,SSE,167,0.0,9.0,47,0.00,,---,0.00,0.00,VWS V14.01,2013-04-15 00:21:00,
2013-04-14 20:26:00,62.9,42.9,30.05,South,169,0.0,9.0,48,0.00,,---,0.00,0.00,VWS V14.01,2013-04-15 00:26:00,
2013-04-14 20:30:00,62.7,42.8,30.05,SW,224,0.0,9.0,48,0.00,,---,0.00,0.00,VWS V14.01,2013-04-15 00:30:00,
2013-04-14 20:31:00,62.8,42.3,30.05,SSW,212,0.0,9.0,47,0.00,,---,0.00,0.00,VWS V14.01,2013-04-15 00:31:00,
2013-04-14 20:36:00,62.6,42.7,30.05,South,176,0.0,6.0,48,0.00,,---,0.00,0.00,VWS V14.01,2013-04-15 00:36:00,
2013-04-14 20:42:00,62.5,42.6,30.05,South,169,0.0,6.0,48,0.00,,---,0.00,0.00,VWS V14.01,2013-04-15 00:42:00,
2013-04-14 20:47:00,62.3,42.9,30.05,SSW,194,0.0,7.0,49,0.00,,---,0.00,0.00,VWS V14.01,2013-04-15 00:47:00,
2013-04-14 20:52:00,62.2,43.3,30.05,South,191,2.0,7.0,50,0.00,,---,0.00,0.00,VWS V14.01,2013-04-15 00:52:00,
2013-04-14 20:57:00,62.1,43.3,30.05,SSW,200,2.0,7.0,50,0.00,,---,0.00,0.00,VWS V14.01,2013-04-15 00:57:00,
2013-04-14 21:00:00,62.0,43.2,30.05,ESE,111,0.0,7.0,50,0.00,,---,0.00,0.00,VWS V14.01,2013-04-15 01:00:00,
2013-04-14 21:02:00,62.0,43.2,30.05,South,190,4.0,7.0,50,0.00,,---,0.00,0.00,VWS V14.01,2013-04-15 01:02:00,
2013-04-14 21:07:00,61.9,43.6,30.05,SW,227,0.0,4.0,51,0.00,,---,0.00,0.00,VWS V14.01,2013-04-15 01:07:00,
2013-04-14 21:12:00,61.8,43.5,30.05,South,169,0.0,7.0,51,0.00,,---,0.00,0.00,VWS V14.01,2013-04-15 01:12:00,
2013-04-14 21:17:00,61.6,43.8,30.05,South,184,3.0,7.0,52,0.00,,---,0.00,0.00,VWS V14.01,2013-04-15 01:17:00,
2013-04-14 21:23:00,61.6,43.8,30.05,NW,321,0.0,7.0,52,0.00,,---,0.00,0.00,VWS V14.01,2013-04-15 01:23:00,
2013-04-14 21:28:00,61.5,43.7,30.05,SSE,161,3.0,7.0,52,0.00,,---,0.00,0.00,VWS V14.01,2013-04-15 01:28:00,
2013-04-14 21:30:00,61.4,43.6,30.06,SSE,161,0.0,7.0,52,0.00,,---,0.00,0.00,VWS V14.01,2013-04-15 01:30:00,
2013-04-14 21:33:00,61.4,43.6,30.06,SSE,161,0.0,0.0,52,0.00,,---,0.00,0.00,VWS V14.01,2013-04-15 01:33:00,
2013-04-14 21:38:00,61.4,43.6,30.06,SSE,164,0.0,0.0,52,0.00,,---,0.00,0.00,VWS V14.01,2013-04-15 01:38:00,
2013-04-14 21:43:00,61.3,43.5,30.06,SSE,164,0.0,0.0,52,0.00,,---,0.00,0.00,VWS V14.01,2013-04-15 01:43:00,
2013-04-14 21:48:00,61.3,43.5,30.06,SSE,164,0.0,0.0,52,0.00,,---,0.00,0.00,VWS V14.01,2013-04-15 01:48:00,
2013-04-14 21:53:00,61.2,43.5,30.06,SSE,164,0.0,0.0,52,0.00,,---,0.00,0.00,VWS V14.01,2013-04-15 01:53:00,
2013-04-14 21:58:00,61.1,43.9,30.07,ENE,77,0.0,2.0,53,0.00,,---,0.00,0.00,VWS V14.01,2013-04-15 01:58:00,
2013-04-14 22:00:00,61.1,43.9,30.07,SE,142,0.0,2.0,53,0.00,,---,0.00,0.00,VWS V14.01,2013-04-15 02:00:00,
2013-04-14 22:03:00,61.0,43.8,30.07,SE,142,0.0,0.0,53,0.00,,---,0.00,0.00,VWS V14.01,2013-04-15 02:03:00,
2013-04-14 22:08:00,60.9,44.2,30.07,SSE,161,2.0,3.0,54,0.00,,---,0.00,0.00,VWS V14.01,2013-04-15 02:08:00,
2013-04-14 22:13:00,60.9,44.6,30.07,SW,216,0.0,3.0,55,0.00,,---,0.00,0.00,VWS V14.01,2013-04-15 02:13:00,
2013-04-14 22:18:00,60.8,44.5,30.07,ENE,61,4.0,6.0,55,0.00,,---,0.00,0.00,VWS V14.01,2013-04-15 02:18:00,
2013-04-14 22:23:00,60.7,44.5,30.08,South,174,3.0,6.0,55,0.00,,---,0.00,0.00,VWS V14.01,2013-04-15 02:23:00,
2013-04-14 22:28:00,60.6,44.4,30.08,South,173,0.0,10.0,55,0.00,,---,0.00,0.00,VWS V14.01,2013-04-15 02:28:00,
2013-04-14 22:30:00,60.5,44.7,30.07,SSW,209,2.0,10.0,56,0.00,,---,0.00,0.00,VWS V14.01,2013-04-15 02:30:00,
2013-04-14 22:33:00,60.5,44.3,30.07,SSE,160,4.0,4.0,55,0.00,,---,0.00,0.00,VWS V14.01,2013-04-15 02:33:00,
2013-04-14 22:38:00,60.4,44.7,30.07,South,182,0.0,4.0,56,0.00,,---,0.00,0.00,VWS V14.01,2013-04-15 02:38:00,
2013-04-14 22:43:00,60.3,44.1,30.07,South,186,0.0,4.0,55,0.00,,---,0.00,0.00,VWS V14.01,2013-04-15 02:43:00,
2013-04-14 22:48:00,60.2,44.5,30.07,SW,223,3.0,7.0,56,0.00,,---,0.00,0.00,VWS V14.01,2013-04-15 02:48:00,
2013-04-14 22:54:00,60.2,44.5,30.07,SW,221,0.0,7.0,56,0.00,,---,0.00,0.00,VWS V14.01,2013-04-15 02:54:00,
2013-04-14 22:59:00,60.1,44.4,30.07,SSE,152,5.0,8.0,56,0.00,,---,0.00,0.00,VWS V14.01,2013-04-15 02:59:00,
2013-04-14 23:00:00,60.0,44.3,30.07,South,172,0.0,8.0,56,0.00,,---,0.00,0.00,VWS V14.01,2013-04-15 03:00:00,
2013-04-14 23:04:00,60.0,44.3,30.07,South,172,0.0,0.0,56,0.00,,---,0.00,0.00,VWS V14.01,2013-04-15 03:04:00,
2013-04-14 23:09:00,59.9,44.2,30.07,South,172,0.0,1.0,56,0.00,,---,0.00,0.00,VWS V14.01,2013-04-15 03:09:00,
2013-04-14 23:14:00,59.8,43.6,30.07,SSE,159,0.0,5.0,55,0.00,,---,0.00,0.00,VWS V14.01,2013-04-15 03:14:00,
2013-04-14 23:19:00,59.7,44.5,30.07,SSE,167,0.0,5.0,57,0.00,,---,0.00,0.00,VWS V14.01,2013-04-15 03:19:00,
2013-04-14 23:24:00,59.6,45.3,30.06,ESE,102,0.0,5.0,59,0.00,,---,0.00,0.00,VWS V14.01,2013-04-15 03:24:00,
2013-04-14 23:29:00,59.5,45.2,30.06,NE,46,0.0,6.0,59,0.00,,---,0.00,0.00,VWS V14.01,2013-04-15 03:29:00,
2013-04-14 23:30:00,59.5,45.6,30.07,SSE,168,0.0,6.0,60,0.00,,---,0.00,0.00,VWS V14.01,2013-04-15 03:30:00,
2013-04-14 23:34:00,59.4,45.5,30.07,NNE,26,4.0,13.0,60,0.00,,---,0.00,0.00,VWS V14.01,2013-04-15 03:34:00,
2013-04-14 23:39:00,59.3,45.9,30.07,SSW,197,0.0,13.0,61,0.00,,---,0.00,0.00,VWS V14.01,2013-04-15 03:39:00,
2013-04-14 23:44:00,59.1,45.7,30.07,SSE,159,0.0,13.0,61,0.00,,---,0.00,0.00,VWS V14.01,2013-04-15 03:44:00,
2013-04-14 23:49:00,59.0,46.4,30.07,South,174,5.0,13.0,63,0.00,,---,0.00,0.00,VWS V14.01,2013-04-15 03:49:00,
2013-04-14 23:54:00,58.8,47.1,30.07,South,178,0.0,13.0,65,0.00,,---,0.00,0.00,VWS V14.01,2013-04-15 03:54:00,
2013-04-14 23:59:00,58.6,47.7,30.07,East,82,4.0,13.0,67,0.00,,---,0.00,0.00,VWS V14.01,2013-04-15 03:59:00,